East Stone Gap, VA (24246)

6:22 AM EDT on July 30, 2014 (GMT -0400)
Lonesome Pine (KLNP) Elev 2684 ft | 36.99 °N, 82.53 °W | Change Station

Current weather conditions updated 7 minutes ago

Clear
Clear
52 °F
Feels Like 52 °F
N
0
Wind Variable Wind from North

Today is forecast to be Much Warmer than yesterday.

Today
High -- | Low -- °F
--% Chance of Precip.
Yesterday
High -- | Low -- °F
Precip. -- in
6:34 AM 8:39 PM
Waxing Crescent, 11% visible
Pressure 30.15 in
Visibility 10.0 miles
Clouds Clear
Dew Point 52 °F
Humidity 100%
Rainfall 0.00 in
Snow Depth Not available.
UV 0 out of 12
Pollen 4.80 out of 12
Air Quality Not available.
Flu Activity Not available.
METAR KLNP 301015Z AUTO 00000KT 10SM CLR 11/11 A3015 RMK AO2

More Conditions Fewer Conditions

Pressure 30.15 in
Visibility 10.0 miles
Clouds Clear
Dew Point 52 °F
Humidity 100%
Rainfall 0.00 in
Snow Depth Not available.
UV 0 out of 12
Pollen 4.80 out of 12
Air Quality Not available.
Flu Activity Not available.
METAR KLNP 301015Z AUTO 00000KT 10SM CLR 11/11 A3015 RMK AO2

More Conditions Fewer Conditions

10-Day Weather Forecast

Almanac

Astronomy

Jul. 30, 2014 Rise Set
Actual Time 6:34 AM EDT 8:39 PM EDT
Civil Twilight 6:06 AM EDT 9:08 PM EDT
Nautical Twilight 5:30 AM EDT 9:43 PM EDT
Astronomical Twilight 4:52 AM EDT 10:21 PM EDT
Moon 9:59 AM EDT 10:28 PM EDT
Length of Visible Light 15h 02m
Length of Day
14h 04m
Tomorrow will be 1m 43s shorter.
Waxing Crescent, 11% of the Moon is Illuminated
Today
Waxing Crescent
Aug 3
First Quarter
Aug 10
Full
Aug 17
Last Quarter
Aug 25
New

Today's Extremes

State Highs State Lows

Community

WunderPhotos

Upload Photos

1,739,032 photos uploaded!

WunderBlogs® & News

Nearby

Snow Depth

Station Depth Elevation
No new snow has been reported.

Earthquake Activity

City Distance Mag. Time & Date
No recent earthquake activity has been reported nearby.
Minimum magnitude displayed is 2.5.

Coastal Water Temperatures

Place Temperature
No Stations Reporting

Nearby Weather Stations

Station Location Temp. Windchill Dew Point Humidity Wind Precip. Elev Updated Type
W4CSN, Nottingham, Gate City, VA 49.6 °F 50 °F 49 °F 99% North  at  0.0 mph 0.00 in / hr 1309 ft 6:22 AM EDT Rapid Fire
RAWS PRAWS 12 KY, Jenkins, KY 51 °F - 51 °F 100% North  at  0 mph 0.00 in / hr 1974 ft 5:47 AM EDT MADIS
Rotherwood, Kingsport, TN 53.4 °F - 53 °F 99% North  at  0.0 mph 0.00 in / hr 1171 ft 6:21 AM EDT Rapid Fire
eastside37664, Kingsport, TN 53.3 °F - 53 °F 97% NW  at  0.0 mph 0.01 in / hr 1339 ft 6:22 AM EDT Rapid Fire
Bays Mountain Park Nature Center, Kingsport, TN 50.1 °F - 49 °F 96% North  at  0.0 mph 0.00 in / hr 1860 ft 6:21 AM EDT Rapid Fire

Show More Stations Show Fewer Stations